sensor_id;sensor_type;location;lat;lon;timestamp;P1;durP1;ratioP1;P2;durP2;ratioP2
3627;SDS011;1830;49.000;12.074;2023-10-13T00:00:40;26.13;;;13.87;;
3627;SDS011;1830;49.000;12.074;2023-10-13T00:03:07;30.93;;;14.07;;
3627;SDS011;1830;49.000;12.074;2023-10-13T00:05:40;22.80;;;14.10;;
3627;SDS011;1830;49.000;12.074;2023-10-13T00:08:08;32.20;;;15.27;;
3627;SDS011;1830;49.000;12.074;2023-10-13T00:10:36;33.10;;;13.90;;
3627;SDS011;1830;49.000;12.074;2023-10-13T00:13:04;22.30;;;14.23;;
3627;SDS011;1830;49.000;12.074;2023-10-13T00:15:41;24.67;;;15.40;;
3627;SDS011;1830;49.000;12.074;2023-10-13T00:18:11;25.77;;;14.80;;
3627;SDS011;1830;49.000;12.074;2023-10-13T00:20:40;27.83;;;15.00;;
3627;SDS011;1830;49.000;12.074;2023-10-13T00:23:13;29.97;;;16.20;;
3627;SDS011;1830;49.000;12.074;2023-10-13T00:25:40;22.40;;;15.17;;
3627;SDS011;1830;49.000;12.074;2023-10-13T00:28:16;30.43;;;15.20;;
3627;SDS011;1830;49.000;12.074;2023-10-13T00:30:48;27.33;;;15.80;;
3627;SDS011;1830;49.000;12.074;2023-10-13T00:33:17;27.33;;;15.53;;
3627;SDS011;1830;49.000;12.074;2023-10-13T00:35:45;23.47;;;15.20;;
3627;SDS011;1830;49.000;12.074;2023-10-13T00:38:14;25.00;;;16.03;;
3627;SDS011;1830;49.000;12.074;2023-10-13T00:40:42;29.30;;;17.53;;
3627;SDS011;1830;49.000;12.074;2023-10-13T00:43:18;27.60;;;15.73;;
3627;SDS011;1830;49.000;12.074;2023-10-13T00:46:01;31.00;;;17.60;;
3627;SDS011;1830;49.000;12.074;2023-10-13T00:48:35;27.00;;;15.50;;
3627;SDS011;1830;49.000;12.074;2023-10-13T00:51:11;27.80;;;16.73;;
3627;SDS011;1830;49.000;12.074;2023-10-13T00:53:44;31.33;;;16.57;;
3627;SDS011;1830;49.000;12.074;2023-10-13T00:56:13;26.60;;;17.47;;
3627;SDS011;1830;49.000;12.074;2023-10-13T00:58:50;34.80;;;17.87;;
3627;SDS011;1830;49.000;12.074;2023-10-13T01:01:18;29.67;;;15.27;;
3627;SDS011;1830;49.000;12.074;2023-10-13T01:03:46;25.10;;;15.13;;
3627;SDS011;1830;49.000;12.074;2023-10-13T01:06:17;33.10;;;16.07;;
3627;SDS011;1830;49.000;12.074;2023-10-13T01:08:45;24.67;;;15.40;;
3627;SDS011;1830;49.000;12.074;2023-10-13T01:11:16;23.00;;;14.80;;
3627;SDS011;1830;49.000;12.074;2023-10-13T01:13:43;31.40;;;15.80;;
3627;SDS011;1830;49.000;12.074;2023-10-13T01:16:13;25.30;;;14.63;;
3627;SDS011;1830;49.000;12.074;2023-10-13T01:18:39;25.97;;;15.60;;
3627;SDS011;1830;49.000;12.074;2023-10-13T01:21:13;25.23;;;15.87;;
3627;SDS011;1830;49.000;12.074;2023-10-13T01:23:43;29.07;;;15.13;;
3627;SDS011;1830;49.000;12.074;2023-10-13T01:26:11;30.23;;;16.00;;
3627;SDS011;1830;49.000;12.074;2023-10-13T01:28:38;24.00;;;15.47;;
3627;SDS011;1830;49.000;12.074;2023-10-13T01:31:11;30.50;;;15.80;;
3627;SDS011;1830;49.000;12.074;2023-10-13T01:33:41;31.53;;;16.40;;
3627;SDS011;1830;49.000;12.074;2023-10-13T01:36:09;32.40;;;14.90;;
3627;SDS011;1830;49.000;12.074;2023-10-13T01:38:37;23.77;;;14.33;;
3627;SDS011;1830;49.000;12.074;2023-10-13T01:41:07;29.67;;;15.57;;
3627;SDS011;1830;49.000;12.074;2023-10-13T01:43:35;25.07;;;14.60;;
3627;SDS011;1830;49.000;12.074;2023-10-13T01:46:01;20.53;;;14.07;;
3627;SDS011;1830;49.000;12.074;2023-10-13T01:48:28;24.57;;;14.30;;
3627;SDS011;1830;49.000;12.074;2023-10-13T01:50:58;42.87;;;15.30;;
3627;SDS011;1830;49.000;12.074;2023-10-13T01:53:27;21.60;;;14.60;;
3627;SDS011;1830;49.000;12.074;2023-10-13T01:55:54;27.83;;;14.50;;
3627;SDS011;1830;49.000;12.074;2023-10-13T01:58:23;39.20;;;15.17;;
3627;SDS011;1830;49.000;12.074;2023-10-13T02:00:54;27.10;;;15.00;;
3627;SDS011;1830;49.000;12.074;2023-10-13T02:03:21;24.50;;;14.57;;
3627;SDS011;1830;49.000;12.074;2023-10-13T02:05:49;22.73;;;14.83;;
3627;SDS011;1830;49.000;12.074;2023-10-13T02:08:19;30.97;;;14.80;;
3627;SDS011;1830;49.000;12.074;2023-10-13T02:10:48;23.70;;;15.13;;
3627;SDS011;1830;49.000;12.074;2023-10-13T02:13:15;22.97;;;13.87;;
3627;SDS011;1830;49.000;12.074;2023-10-13T02:15:44;29.67;;;16.10;;
3627;SDS011;1830;49.000;12.074;2023-10-13T02:18:13;24.57;;;14.67;;
3627;SDS011;1830;49.000;12.074;2023-10-13T02:20:46;22.90;;;14.37;;
3627;SDS011;1830;49.000;12.074;2023-10-13T02:23:19;24.50;;;14.53;;
3627;SDS011;1830;49.000;12.074;2023-10-13T02:25:46;30.30;;;16.77;;
3627;SDS011;1830;49.000;12.074;2023-10-13T02:28:12;29.80;;;14.60;;
3627;SDS011;1830;49.000;12.074;2023-10-13T02:30:40;28.07;;;16.70;;
3627;SDS011;1830;49.000;12.074;2023-10-13T02:33:10;30.70;;;17.07;;
3627;SDS011;1830;49.000;12.074;2023-10-13T02:35:39;31.00;;;16.07;;
3627;SDS011;1830;49.000;12.074;2023-10-13T02:38:06;28.50;;;15.63;;
3627;SDS011;1830;49.000;12.074;2023-10-13T02:40:36;26.27;;;14.60;;
3627;SDS011;1830;49.000;12.074;2023-10-13T02:43:03;25.40;;;15.30;;
3627;SDS011;1830;49.000;12.074;2023-10-13T02:45:31;22.40;;;15.07;;
3627;SDS011;1830;49.000;12.074;2023-10-13T02:47:57;26.13;;;15.50;;
3627;SDS011;1830;49.000;12.074;2023-10-13T02:53:11;30.77;;;16.40;;
3627;SDS011;1830;49.000;12.074;2023-10-13T02:55:50;28.90;;;15.33;;
3627;SDS011;1830;49.000;12.074;2023-10-13T02:58:17;26.57;;;17.60;;
3627;SDS011;1830;49.000;12.074;2023-10-13T03:00:45;28.87;;;16.70;;
3627;SDS011;1830;49.000;12.074;2023-10-13T03:03:11;24.57;;;15.77;;
3627;SDS011;1830;49.000;12.074;2023-10-13T03:05:44;24.53;;;16.27;;
3627;SDS011;1830;49.000;12.074;2023-10-13T03:08:11;23.23;;;14.93;;
3627;SDS011;1830;49.000;12.074;2023-10-13T03:10:43;32.73;;;16.90;;
3627;SDS011;1830;49.000;12.074;2023-10-13T03:13:14;29.90;;;17.00;;
3627;SDS011;1830;49.000;12.074;2023-10-13T03:15:40;25.87;;;16.60;;
3627;SDS011;1830;49.000;12.074;2023-10-13T03:18:12;23.67;;;16.13;;
3627;SDS011;1830;49.000;12.074;2023-10-13T03:20:44;29.30;;;17.00;;
3627;SDS011;1830;49.000;12.074;2023-10-13T03:23:15;26.03;;;16.80;;
3627;SDS011;1830;49.000;12.074;2023-10-13T03:25:41;28.87;;;16.17;;
3627;SDS011;1830;49.000;12.074;2023-10-13T03:28:08;28.93;;;17.40;;
3627;SDS011;1830;49.000;12.074;2023-10-13T03:30:39;29.17;;;16.10;;
3627;SDS011;1830;49.000;12.074;2023-10-13T03:33:07;27.10;;;16.57;;
3627;SDS011;1830;49.000;12.074;2023-10-13T03:35:37;27.50;;;16.23;;
3627;SDS011;1830;49.000;12.074;2023-10-13T03:38:07;26.50;;;16.10;;
3627;SDS011;1830;49.000;12.074;2023-10-13T03:40:42;26.73;;;16.17;;
3627;SDS011;1830;49.000;12.074;2023-10-13T03:43:15;29.00;;;17.30;;
3627;SDS011;1830;49.000;12.074;2023-10-13T03:45:47;29.10;;;16.30;;
3627;SDS011;1830;49.000;12.074;2023-10-13T03:48:18;27.33;;;15.50;;
3627;SDS011;1830;49.000;12.074;2023-10-13T03:50:55;33.73;;;17.20;;
3627;SDS011;1830;49.000;12.074;2023-10-13T03:53:29;28.77;;;16.80;;
3627;SDS011;1830;49.000;12.074;2023-10-13T03:55:59;27.20;;;16.10;;
3627;SDS011;1830;49.000;12.074;2023-10-13T03:58:37;23.00;;;15.77;;
3627;SDS011;1830;49.000;12.074;2023-10-13T04:01:07;27.20;;;16.97;;
3627;SDS011;1830;49.000;12.074;2023-10-13T04:03:38;35.97;;;16.30;;
3627;SDS011;1830;49.000;12.074;2023-10-13T04:06:21;29.20;;;16.40;;
3627;SDS011;1830;49.000;12.074;2023-10-13T04:09:10;30.90;;;15.93;;
3627;SDS011;1830;49.000;12.074;2023-10-13T04:11:57;28.30;;;16.90;;
3627;SDS011;1830;49.000;12.074;2023-10-13T04:14:42;23.97;;;15.50;;
3627;SDS011;1830;49.000;12.074;2023-10-13T04:17:35;33.13;;;17.73;;
3627;SDS011;1830;49.000;12.074;2023-10-13T04:20:11;28.70;;;16.47;;
3627;SDS011;1830;49.000;12.074;2023-10-13T04:22:53;35.60;;;17.93;;
3627;SDS011;1830;49.000;12.074;2023-10-13T04:25:35;26.80;;;15.30;;
3627;SDS011;1830;49.000;12.074;2023-10-13T04:28:17;25.17;;;15.87;;
3627;SDS011;1830;49.000;12.074;2023-10-13T04:30:59;26.43;;;16.70;;
3627;SDS011;1830;49.000;12.074;2023-10-13T04:33:37;28.57;;;15.80;;
3627;SDS011;1830;49.000;12.074;2023-10-13T04:36:16;36.37;;;17.10;;
3627;SDS011;1830;49.000;12.074;2023-10-13T04:39:01;31.37;;;15.57;;
3627;SDS011;1830;49.000;12.074;2023-10-13T04:41:36;29.10;;;17.80;;
3627;SDS011;1830;49.000;12.074;2023-10-13T04:44:04;31.93;;;15.63;;
3627;SDS011;1830;49.000;12.074;2023-10-13T04:46:55;34.37;;;17.40;;
3627;SDS011;1830;49.000;12.074;2023-10-13T04:49:42;28.47;;;17.47;;
3627;SDS011;1830;49.000;12.074;2023-10-13T04:52:16;33.60;;;17.63;;
3627;SDS011;1830;49.000;12.074;2023-10-13T04:55:16;39.93;;;18.23;;
3627;SDS011;1830;49.000;12.074;2023-10-13T04:57:50;29.03;;;18.00;;
3627;SDS011;1830;49.000;12.074;2023-10-13T05:00:25;27.40;;;16.97;;
3627;SDS011;1830;49.000;12.074;2023-10-13T05:03:15;29.63;;;17.43;;
3627;SDS011;1830;49.000;12.074;2023-10-13T05:05:58;42.67;;;18.00;;
3627;SDS011;1830;49.000;12.074;2023-10-13T05:08:57;26.30;;;17.30;;
3627;SDS011;1830;49.000;12.074;2023-10-13T05:11:41;32.57;;;17.90;;
3627;SDS011;1830;49.000;12.074;2023-10-13T05:14:26;32.63;;;18.70;;
3627;SDS011;1830;49.000;12.074;2023-10-13T05:17:11;47.23;;;19.67;;
3627;SDS011;1830;49.000;12.074;2023-10-13T05:19:55;38.60;;;18.40;;
3627;SDS011;1830;49.000;12.074;2023-10-13T05:22:40;36.40;;;18.40;;
3627;SDS011;1830;49.000;12.074;2023-10-13T05:25:24;38.20;;;19.33;;
3627;SDS011;1830;49.000;12.074;2023-10-13T05:28:08;35.83;;;18.60;;
3627;SDS011;1830;49.000;12.074;2023-10-13T05:30:54;35.20;;;18.73;;
3627;SDS011;1830;49.000;12.074;2023-10-13T05:33:38;29.60;;;19.93;;
3627;SDS011;1830;49.000;12.074;2023-10-13T05:36:22;40.33;;;19.27;;
3627;SDS011;1830;49.000;12.074;2023-10-13T05:39:06;37.73;;;18.90;;
3627;SDS011;1830;49.000;12.074;2023-10-13T05:41:50;44.20;;;18.97;;
3627;SDS011;1830;49.000;12.074;2023-10-13T05:44:46;32.43;;;18.47;;
3627;SDS011;1830;49.000;12.074;2023-10-13T05:47:43;30.13;;;20.80;;
3627;SDS011;1830;49.000;12.074;2023-10-13T05:50:13;35.40;;;19.47;;
3627;SDS011;1830;49.000;12.074;2023-10-13T05:53:08;47.53;;;21.57;;
3627;SDS011;1830;49.000;12.074;2023-10-13T05:55:52;51.17;;;21.20;;
3627;SDS011;1830;49.000;12.074;2023-10-13T05:58:43;34.03;;;20.73;;
3627;SDS011;1830;49.000;12.074;2023-10-13T06:01:27;37.33;;;20.80;;
3627;SDS011;1830;49.000;12.074;2023-10-13T06:04:11;40.27;;;19.80;;
3627;SDS011;1830;49.000;12.074;2023-10-13T06:06:55;35.13;;;20.43;;
3627;SDS011;1830;49.000;12.074;2023-10-13T06:09:40;30.13;;;20.00;;
3627;SDS011;1830;49.000;12.074;2023-10-13T06:12:24;29.17;;;19.47;;
3627;SDS011;1830;49.000;12.074;2023-10-13T06:15:08;51.83;;;20.30;;
3627;SDS011;1830;49.000;12.074;2023-10-13T06:17:52;25.23;;;19.47;;
3627;SDS011;1830;49.000;12.074;2023-10-13T06:20:38;41.33;;;21.83;;
3627;SDS011;1830;49.000;12.074;2023-10-13T06:23:22;41.37;;;21.77;;
3627;SDS011;1830;49.000;12.074;2023-10-13T06:26:08;44.33;;;20.23;;
3627;SDS011;1830;49.000;12.074;2023-10-13T06:28:52;32.13;;;20.53;;
3627;SDS011;1830;49.000;12.074;2023-10-13T06:31:19;44.33;;;21.50;;
3627;SDS011;1830;49.000;12.074;2023-10-13T06:33:50;39.00;;;21.40;;
3627;SDS011;1830;49.000;12.074;2023-10-13T06:36:20;35.20;;;21.67;;
3627;SDS011;1830;49.000;12.074;2023-10-13T06:38:47;38.90;;;21.53;;
3627;SDS011;1830;49.000;12.074;2023-10-13T06:41:21;38.00;;;22.60;;
3627;SDS011;1830;49.000;12.074;2023-10-13T06:43:56;34.77;;;21.93;;
3627;SDS011;1830;49.000;12.074;2023-10-13T06:46:28;33.27;;;21.63;;
3627;SDS011;1830;49.000;12.074;2023-10-13T06:48:58;31.77;;;21.70;;
3627;SDS011;1830;49.000;12.074;2023-10-13T06:51:27;30.97;;;21.60;;
3627;SDS011;1830;49.000;12.074;2023-10-13T06:54:03;34.13;;;20.27;;
3627;SDS011;1830;49.000;12.074;2023-10-13T06:56:36;35.00;;;21.37;;
3627;SDS011;1830;49.000;12.074;2023-10-13T06:59:05;38.20;;;22.30;;
3627;SDS011;1830;49.000;12.074;2023-10-13T07:01:33;36.93;;;22.43;;
3627;SDS011;1830;49.000;12.074;2023-10-13T07:04:04;35.40;;;21.87;;
3627;SDS011;1830;49.000;12.074;2023-10-13T07:06:37;34.03;;;20.90;;
3627;SDS011;1830;49.000;12.074;2023-10-13T07:09:07;32.43;;;21.20;;
3627;SDS011;1830;49.000;12.074;2023-10-13T07:11:58;41.40;;;22.73;;
3627;SDS011;1830;49.000;12.074;2023-10-13T07:14:26;27.80;;;18.67;;
3627;SDS011;1830;49.000;12.074;2023-10-13T07:16:55;33.13;;;21.73;;
3627;SDS011;1830;49.000;12.074;2023-10-13T07:19:24;31.90;;;19.67;;
3627;SDS011;1830;49.000;12.074;2023-10-13T07:21:53;24.27;;;18.53;;
3627;SDS011;1830;49.000;12.074;2023-10-13T07:24:23;38.57;;;20.30;;
3627;SDS011;1830;49.000;12.074;2023-10-13T07:26:52;27.33;;;19.33;;
3627;SDS011;1830;49.000;12.074;2023-10-13T07:29:31;40.87;;;20.30;;
3627;SDS011;1830;49.000;12.074;2023-10-13T07:32:00;33.00;;;20.93;;
3627;SDS011;1830;49.000;12.074;2023-10-13T07:34:28;33.00;;;19.50;;
3627;SDS011;1830;49.000;12.074;2023-10-13T07:36:57;39.80;;;20.80;;
3627;SDS011;1830;49.000;12.074;2023-10-13T07:39:25;40.40;;;21.10;;
3627;SDS011;1830;49.000;12.074;2023-10-13T07:41:53;35.43;;;20.43;;
3627;SDS011;1830;49.000;12.074;2023-10-13T07:44:28;28.97;;;19.00;;
3627;SDS011;1830;49.000;12.074;2023-10-13T07:46:58;28.97;;;17.90;;
3627;SDS011;1830;49.000;12.074;2023-10-13T07:49:28;32.63;;;17.20;;
3627;SDS011;1830;49.000;12.074;2023-10-13T07:52:01;35.60;;;17.93;;
3627;SDS011;1830;49.000;12.074;2023-10-13T07:54:41;37.97;;;17.00;;
3627;SDS011;1830;49.000;12.074;2023-10-13T07:57:09;21.00;;;16.40;;
3627;SDS011;1830;49.000;12.074;2023-10-13T07:59:41;27.60;;;17.70;;
3627;SDS011;1830;49.000;12.074;2023-10-13T08:02:13;25.43;;;17.20;;
3627;SDS011;1830;49.000;12.074;2023-10-13T08:04:58;30.40;;;16.37;;
3627;SDS011;1830;49.000;12.074;2023-10-13T08:07:25;27.73;;;15.40;;
3627;SDS011;1830;49.000;12.074;2023-10-13T08:09:53;25.33;;;14.83;;
3627;SDS011;1830;49.000;12.074;2023-10-13T08:12:22;26.70;;;15.80;;
3627;SDS011;1830;49.000;12.074;2023-10-13T08:14:51;34.13;;;15.07;;
3627;SDS011;1830;49.000;12.074;2023-10-13T08:17:36;25.93;;;15.63;;
3627;SDS011;1830;49.000;12.074;2023-10-13T08:20:09;27.40;;;15.87;;
3627;SDS011;1830;49.000;12.074;2023-10-13T08:22:37;27.00;;;17.20;;
3627;SDS011;1830;49.000;12.074;2023-10-13T08:25:05;38.23;;;16.50;;
3627;SDS011;1830;49.000;12.074;2023-10-13T08:27:45;26.50;;;14.27;;
3627;SDS011;1830;49.000;12.074;2023-10-13T08:30:31;27.50;;;15.60;;
3627;SDS011;1830;49.000;12.074;2023-10-13T08:33:07;24.40;;;14.97;;
3627;SDS011;1830;49.000;12.074;2023-10-13T08:35:43;38.67;;;15.80;;
3627;SDS011;1830;49.000;12.074;2023-10-13T08:38:30;38.83;;;14.73;;
3627;SDS011;1830;49.000;12.074;2023-10-13T08:41:15;28.57;;;14.50;;
3627;SDS011;1830;49.000;12.074;2023-10-13T08:43:54;18.47;;;13.40;;
3627;SDS011;1830;49.000;12.074;2023-10-13T08:46:31;25.80;;;13.63;;
3627;SDS011;1830;49.000;12.074;2023-10-13T08:49:17;33.63;;;14.13;;
3627;SDS011;1830;49.000;12.074;2023-10-13T08:51:48;21.80;;;13.13;;
3627;SDS011;1830;49.000;12.074;2023-10-13T08:54:30;18.50;;;12.03;;
3627;SDS011;1830;49.000;12.074;2023-10-13T08:57:00;30.47;;;12.40;;
3627;SDS011;1830;49.000;12.074;2023-10-13T08:59:44;22.77;;;12.50;;
3627;SDS011;1830;49.000;12.074;2023-10-13T09:02:19;21.40;;;11.80;;
3627;SDS011;1830;49.000;12.074;2023-10-13T09:05:08;38.37;;;13.00;;
3627;SDS011;1830;49.000;12.074;2023-10-13T09:07:55;22.60;;;13.73;;
3627;SDS011;1830;49.000;12.074;2023-10-13T09:10:33;20.87;;;11.83;;
3627;SDS011;1830;49.000;12.074;2023-10-13T09:13:09;37.50;;;12.07;;
3627;SDS011;1830;49.000;12.074;2023-10-13T09:15:44;32.23;;;12.07;;
3627;SDS011;1830;49.000;12.074;2023-10-13T09:18:26;26.20;;;10.90;;
3627;SDS011;1830;49.000;12.074;2023-10-13T09:21:06;31.80;;;12.87;;
3627;SDS011;1830;49.000;12.074;2023-10-13T09:23:54;20.83;;;11.43;;
3627;SDS011;1830;49.000;12.074;2023-10-13T09:26:42;40.57;;;11.70;;
3627;SDS011;1830;49.000;12.074;2023-10-13T09:29:16;15.23;;;9.70;;
3627;SDS011;1830;49.000;12.074;2023-10-13T09:31:43;23.93;;;11.50;;
3627;SDS011;1830;49.000;12.074;2023-10-13T09:34:20;22.00;;;10.73;;
3627;SDS011;1830;49.000;12.074;2023-10-13T09:36:48;16.53;;;9.93;;
3627;SDS011;1830;49.000;12.074;2023-10-13T09:39:22;33.17;;;9.87;;
3627;SDS011;1830;49.000;12.074;2023-10-13T09:42:00;24.73;;;12.77;;
3627;SDS011;1830;49.000;12.074;2023-10-13T09:44:28;28.17;;;10.40;;
3627;SDS011;1830;49.000;12.074;2023-10-13T09:46:57;26.50;;;9.10;;
3627;SDS011;1830;49.000;12.074;2023-10-13T09:49:37;16.57;;;11.00;;
3627;SDS011;1830;49.000;12.074;2023-10-13T09:52:14;19.40;;;9.53;;
3627;SDS011;1830;49.000;12.074;2023-10-13T09:54:50;23.47;;;10.80;;
3627;SDS011;1830;49.000;12.074;2023-10-13T09:57:45;24.97;;;9.73;;
3627;SDS011;1830;49.000;12.074;2023-10-13T10:00:22;32.67;;;8.73;;
3627;SDS011;1830;49.000;12.074;2023-10-13T10:03:11;12.27;;;7.67;;
3627;SDS011;1830;49.000;12.074;2023-10-13T10:05:56;9.43;;;5.60;;
3627;SDS011;1830;49.000;12.074;2023-10-13T10:08:31;12.87;;;5.40;;
3627;SDS011;1830;49.000;12.074;2023-10-13T10:11:15;10.90;;;4.90;;
3627;SDS011;1830;49.000;12.074;2023-10-13T10:14:11;9.77;;;5.40;;
3627;SDS011;1830;49.000;12.074;2023-10-13T10:16:44;11.30;;;4.93;;
3627;SDS011;1830;49.000;12.074;2023-10-13T10:19:24;9.37;;;5.30;;
3627;SDS011;1830;49.000;12.074;2023-10-13T10:22:01;10.73;;;5.40;;
3627;SDS011;1830;49.000;12.074;2023-10-13T10:24:36;9.93;;;5.63;;
3627;SDS011;1830;49.000;12.074;2023-10-13T10:27:05;12.93;;;5.53;;
3627;SDS011;1830;49.000;12.074;2023-10-13T10:29:32;15.60;;;6.37;;
3627;SDS011;1830;49.000;12.074;2023-10-13T10:31:59;21.70;;;5.30;;
3627;SDS011;1830;49.000;12.074;2023-10-13T10:34:31;11.00;;;5.43;;
3627;SDS011;1830;49.000;12.074;2023-10-13T10:37:01;13.33;;;5.13;;
3627;SDS011;1830;49.000;12.074;2023-10-13T10:39:34;13.63;;;5.30;;
3627;SDS011;1830;49.000;12.074;2023-10-13T10:42:10;12.80;;;5.33;;
3627;SDS011;1830;49.000;12.074;2023-10-13T10:44:49;23.07;;;5.27;;
3627;SDS011;1830;49.000;12.074;2023-10-13T10:47:20;14.87;;;5.70;;
3627;SDS011;1830;49.000;12.074;2023-10-13T10:49:56;8.87;;;4.43;;
3627;SDS011;1830;49.000;12.074;2023-10-13T10:52:24;15.40;;;5.70;;
3627;SDS011;1830;49.000;12.074;2023-10-13T10:55:01;21.17;;;5.53;;
3627;SDS011;1830;49.000;12.074;2023-10-13T10:57:32;19.73;;;5.07;;
3627;SDS011;1830;49.000;12.074;2023-10-13T11:00:02;9.60;;;5.50;;
3627;SDS011;1830;49.000;12.074;2023-10-13T11:02:36;37.30;;;12.87;;
3627;SDS011;1830;49.000;12.074;2023-10-13T11:05:03;12.93;;;5.97;;
3627;SDS011;1830;49.000;12.074;2023-10-13T11:07:33;18.47;;;5.43;;
3627;SDS011;1830;49.000;12.074;2023-10-13T11:10:06;24.43;;;6.03;;
3627;SDS011;1830;49.000;12.074;2023-10-13T11:12:37;11.83;;;4.50;;
3627;SDS011;1830;49.000;12.074;2023-10-13T11:15:05;18.63;;;4.83;;
3627;SDS011;1830;49.000;12.074;2023-10-13T11:17:39;10.40;;;4.40;;
3627;SDS011;1830;49.000;12.074;2023-10-13T11:20:13;9.40;;;4.90;;
3627;SDS011;1830;49.000;12.074;2023-10-13T11:22:48;13.07;;;4.97;;
3627;SDS011;1830;49.000;12.074;2023-10-13T11:25:22;19.53;;;4.83;;
3627;SDS011;1830;49.000;12.074;2023-10-13T11:27:54;12.10;;;4.90;;
3627;SDS011;1830;49.000;12.074;2023-10-13T11:30:25;11.30;;;4.90;;
3627;SDS011;1830;49.000;12.074;2023-10-13T11:32:57;15.67;;;4.50;;
3627;SDS011;1830;49.000;12.074;2023-10-13T11:35:24;24.37;;;5.80;;
3627;SDS011;1830;49.000;12.074;2023-10-13T11:37:56;15.50;;;4.90;;
3627;SDS011;1830;49.000;12.074;2023-10-13T11:40:28;11.27;;;4.90;;
3627;SDS011;1830;49.000;12.074;2023-10-13T11:43:09;24.30;;;5.23;;
3627;SDS011;1830;49.000;12.074;2023-10-13T11:45:39;13.50;;;4.97;;
3627;SDS011;1830;49.000;12.074;2023-10-13T11:48:19;9.70;;;4.67;;
3627;SDS011;1830;49.000;12.074;2023-10-13T11:50:59;8.60;;;4.33;;
3627;SDS011;1830;49.000;12.074;2023-10-13T11:53:27;12.33;;;4.60;;
3627;SDS011;1830;49.000;12.074;2023-10-13T11:55:55;18.87;;;4.40;;
3627;SDS011;1830;49.000;12.074;2023-10-13T11:58:21;19.30;;;4.77;;
3627;SDS011;1830;49.000;12.074;2023-10-13T12:00:48;7.10;;;3.63;;
3627;SDS011;1830;49.000;12.074;2023-10-13T12:03:26;12.77;;;4.50;;
3627;SDS011;1830;49.000;12.074;2023-10-13T12:06:11;16.40;;;4.93;;
3627;SDS011;1830;49.000;12.074;2023-10-13T12:08:59;11.73;;;4.87;;
3627;SDS011;1830;49.000;12.074;2023-10-13T12:11:44;12.50;;;4.60;;
3627;SDS011;1830;49.000;12.074;2023-10-13T12:14:11;13.13;;;4.20;;
3627;SDS011;1830;49.000;12.074;2023-10-13T12:16:42;11.03;;;4.40;;
3627;SDS011;1830;49.000;12.074;2023-10-13T12:19:13;18.00;;;4.90;;
3627;SDS011;1830;49.000;12.074;2023-10-13T12:21:41;26.07;;;5.50;;
3627;SDS011;1830;49.000;12.074;2023-10-13T12:24:10;14.83;;;4.03;;
3627;SDS011;1830;49.000;12.074;2023-10-13T12:26:47;14.40;;;4.30;;
3627;SDS011;1830;49.000;12.074;2023-10-13T12:29:20;14.03;;;4.50;;
3627;SDS011;1830;49.000;12.074;2023-10-13T12:31:53;10.80;;;3.63;;
3627;SDS011;1830;49.000;12.074;2023-10-13T12:34:32;19.40;;;4.60;;
3627;SDS011;1830;49.000;12.074;2023-10-13T12:37:22;18.77;;;3.70;;
3627;SDS011;1830;49.000;12.074;2023-10-13T12:40:05;16.27;;;3.93;;
3627;SDS011;1830;49.000;12.074;2023-10-13T12:42:50;15.13;;;4.57;;
3627;SDS011;1830;49.000;12.074;2023-10-13T12:45:31;16.17;;;5.50;;
3627;SDS011;1830;49.000;12.074;2023-10-13T12:48:16;15.52;;;4.55;;
3627;SDS011;1830;49.000;12.074;2023-10-13T12:51:00;16.05;;;5.22;;
3627;SDS011;1830;49.000;12.074;2023-10-13T12:53:45;9.07;;;3.67;;
3627;SDS011;1830;49.000;12.074;2023-10-13T12:56:13;17.67;;;5.15;;
3627;SDS011;1830;49.000;12.074;2023-10-13T12:58:40;10.40;;;3.65;;
3627;SDS011;1830;49.000;12.074;2023-10-13T13:01:16;9.60;;;3.75;;
3627;SDS011;1830;49.000;12.074;2023-10-13T13:03:45;13.15;;;4.82;;
3627;SDS011;1830;49.000;12.074;2023-10-13T13:06:15;17.52;;;3.83;;
3627;SDS011;1830;49.000;12.074;2023-10-13T13:08:42;18.15;;;3.72;;
3627;SDS011;1830;49.000;12.074;2023-10-13T13:11:11;9.20;;;4.57;;
3627;SDS011;1830;49.000;12.074;2023-10-13T13:13:39;14.73;;;4.32;;
3627;SDS011;1830;49.000;12.074;2023-10-13T13:16:06;17.77;;;4.10;;
3627;SDS011;1830;49.000;12.074;2023-10-13T13:18:33;14.70;;;3.67;;
3627;SDS011;1830;49.000;12.074;2023-10-13T13:21:00;15.98;;;4.38;;
3627;SDS011;1830;49.000;12.074;2023-10-13T13:23:31;12.27;;;4.15;;
3627;SDS011;1830;49.000;12.074;2023-10-13T13:25:59;28.75;;;4.32;;
3627;SDS011;1830;49.000;12.074;2023-10-13T13:28:26;10.98;;;4.10;;
3627;SDS011;1830;49.000;12.074;2023-10-13T13:30:56;21.85;;;4.75;;
3627;SDS011;1830;49.000;12.074;2023-10-13T13:33:22;24.15;;;3.80;;
3627;SDS011;1830;49.000;12.074;2023-10-13T13:35:54;10.75;;;3.47;;
3627;SDS011;1830;49.000;12.074;2023-10-13T13:38:24;18.25;;;3.22;;
3627;SDS011;1830;49.000;12.074;2023-10-13T13:40:56;16.58;;;4.25;;
3627;SDS011;1830;49.000;12.074;2023-10-13T13:43:23;16.63;;;3.80;;
3627;SDS011;1830;49.000;12.074;2023-10-13T13:46:17;16.23;;;4.10;;
3627;SDS011;1830;49.000;12.074;2023-10-13T13:48:44;16.70;;;3.78;;
3627;SDS011;1830;49.000;12.074;2023-10-13T13:51:13;14.32;;;3.90;;
3627;SDS011;1830;49.000;12.074;2023-10-13T13:53:40;6.53;;;3.40;;
3627;SDS011;1830;49.000;12.074;2023-10-13T13:56:10;14.23;;;3.88;;
3627;SDS011;1830;49.000;12.074;2023-10-13T13:58:41;13.98;;;3.70;;
3627;SDS011;1830;49.000;12.074;2023-10-13T14:01:08;13.57;;;3.40;;
3627;SDS011;1830;49.000;12.074;2023-10-13T14:03:41;18.52;;;3.78;;
3627;SDS011;1830;49.000;12.074;2023-10-13T14:06:11;18.35;;;5.18;;
3627;SDS011;1830;49.000;12.074;2023-10-13T14:08:43;14.10;;;3.47;;
3627;SDS011;1830;49.000;12.074;2023-10-13T14:11:13;13.82;;;4.10;;
3627;SDS011;1830;49.000;12.074;2023-10-13T14:13:47;14.93;;;4.25;;
3627;SDS011;1830;49.000;12.074;2023-10-13T14:16:14;15.30;;;3.80;;
3627;SDS011;1830;49.000;12.074;2023-10-13T14:18:47;10.57;;;4.00;;
3627;SDS011;1830;49.000;12.074;2023-10-13T14:21:14;16.42;;;3.88;;
3627;SDS011;1830;49.000;12.074;2023-10-13T14:23:43;18.50;;;4.40;;
3627;SDS011;1830;49.000;12.074;2023-10-13T14:26:12;11.75;;;4.13;;
3627;SDS011;1830;49.000;12.074;2023-10-13T14:28:39;8.20;;;3.40;;
3627;SDS011;1830;49.000;12.074;2023-10-13T14:31:17;18.60;;;4.30;;
3627;SDS011;1830;49.000;12.074;2023-10-13T14:33:46;16.85;;;4.22;;
3627;SDS011;1830;49.000;12.074;2023-10-13T14:36:13;12.38;;;3.60;;
3627;SDS011;1830;49.000;12.074;2023-10-13T14:38:44;11.80;;;4.20;;
3627;SDS011;1830;49.000;12.074;2023-10-13T14:41:14;9.80;;;3.63;;
3627;SDS011;1830;49.000;12.074;2023-10-13T14:43:42;17.42;;;4.05;;
3627;SDS011;1830;49.000;12.074;2023-10-13T14:46:12;17.63;;;4.57;;
3627;SDS011;1830;49.000;12.074;2023-10-13T14:48:40;17.02;;;3.72;;
3627;SDS011;1830;49.000;12.074;2023-10-13T14:51:09;12.38;;;4.35;;
3627;SDS011;1830;49.000;12.074;2023-10-13T14:53:38;8.90;;;3.92;;
3627;SDS011;1830;49.000;12.074;2023-10-13T14:56:08;15.45;;;3.80;;
3627;SDS011;1830;49.000;12.074;2023-10-13T14:58:36;15.77;;;3.63;;
3627;SDS011;1830;49.000;12.074;2023-10-13T15:01:10;17.30;;;4.15;;
3627;SDS011;1830;49.000;12.074;2023-10-13T15:03:38;12.68;;;3.63;;
3627;SDS011;1830;49.000;12.074;2023-10-13T15:06:06;20.17;;;4.00;;
3627;SDS011;1830;49.000;12.074;2023-10-13T15:08:34;16.30;;;4.18;;
3627;SDS011;1830;49.000;12.074;2023-10-13T15:11:07;17.10;;;4.10;;
3627;SDS011;1830;49.000;12.074;2023-10-13T15:13:37;19.45;;;5.05;;
3627;SDS011;1830;49.000;12.074;2023-10-13T15:16:12;18.40;;;3.90;;
3627;SDS011;1830;49.000;12.074;2023-10-13T15:18:40;15.15;;;4.35;;
3627;SDS011;1830;49.000;12.074;2023-10-13T15:21:06;24.15;;;4.75;;
3627;SDS011;1830;49.000;12.074;2023-10-13T15:23:35;9.57;;;4.10;;